createdAt,value
2023-04-16T00:00:48.563Z,9.38
2023-04-16T00:03:35.445Z,8.63
2023-04-16T00:06:08.530Z,10.43
2023-04-16T00:08:37.303Z,10.07
2023-04-16T00:11:07.767Z,10.30
2023-04-16T00:13:36.809Z,9.73
2023-04-16T00:16:05.583Z,11.52
2023-04-16T00:18:32.886Z,11.13
2023-04-16T00:21:04.750Z,11.85
2023-04-16T00:23:51.569Z,14.10
2023-04-16T00:26:19.119Z,15.70
2023-04-16T00:28:48.375Z,44.28
2023-04-16T00:31:16.224Z,62.35
2023-04-16T00:33:43.625Z,33.38
2023-04-16T00:36:12.681Z,18.95
2023-04-16T00:38:40.604Z,15.43
2023-04-16T00:41:08.541Z,13.77
2023-04-16T00:43:38.262Z,11.93
2023-04-16T00:46:09.166Z,16.23
2023-04-16T00:48:38.742Z,13.80
2023-04-16T00:51:08.406Z,13.05
2023-04-16T00:53:36.094Z,16.38
2023-04-16T00:56:05.790Z,37.97
2023-04-16T00:58:35.235Z,22.98
2023-04-16T01:01:04.605Z,21.52
2023-04-16T01:03:47.801Z,12.18
2023-04-16T01:06:17.841Z,13.95
2023-04-16T01:08:45.649Z,10.52
2023-04-16T01:11:15.223Z,9.95
2023-04-16T01:13:42.779Z,11.52
2023-04-16T01:16:12.528Z,11.73
2023-04-16T01:18:40.135Z,10.40
2023-04-16T01:21:07.861Z,43.15
2023-04-16T01:23:39.406Z,38.58
2023-04-16T01:26:10.165Z,35.88
2023-04-16T01:28:38.576Z,25.75
2023-04-16T01:31:06.336Z,16.08
2023-04-16T01:33:44.867Z,15.60
2023-04-16T01:36:13.284Z,12.00
2023-04-16T01:38:40.563Z,10.75
2023-04-16T01:41:08.195Z,14.57
2023-04-16T01:43:38.422Z,18.10
2023-04-16T01:46:16.490Z,15.48
2023-04-16T01:48:44.009Z,12.73
2023-04-16T01:51:11.756Z,68.07
2023-04-16T01:53:39.274Z,20.85
2023-04-16T01:56:07.201Z,13.10
2023-04-16T01:58:35.735Z,13.55
2023-04-16T02:01:04.624Z,30.02
2023-04-16T02:03:33.029Z,56.83
2023-04-16T02:06:01.416Z,64.30
2023-04-16T02:08:29.637Z,45.42
2023-04-16T02:10:57.752Z,22.10
2023-04-16T02:13:26.316Z,15.77
2023-04-16T02:15:54.238Z,13.35
2023-04-16T02:18:32.691Z,11.60
2023-04-16T02:21:00.689Z,11.70
2023-04-16T02:23:29.129Z,9.68
2023-04-16T02:25:58.606Z,12.43
2023-04-16T02:28:25.972Z,14.93
2023-04-16T02:30:53.514Z,25.30
2023-04-16T02:33:21.889Z,24.08
2023-04-16T02:36:00.520Z,23.30
2023-04-16T02:38:27.870Z,24.52
2023-04-16T02:40:55.943Z,23.42
2023-04-16T02:43:23.483Z,10.23
2023-04-16T02:45:51.408Z,13.63
2023-04-16T02:48:18.703Z,19.58
2023-04-16T02:50:46.255Z,25.08
2023-04-16T02:53:13.494Z,11.70
2023-04-16T02:55:41.195Z,8.30
2023-04-16T02:58:08.607Z,8.73
2023-04-16T03:00:36.393Z,7.63
2023-04-16T03:03:03.946Z,7.13
2023-04-16T03:05:31.623Z,7.20
2023-04-16T03:07:58.837Z,8.48
2023-04-16T03:10:26.735Z,8.50
2023-04-16T03:12:55.772Z,7.43
2023-04-16T03:15:24.217Z,22.23
2023-04-16T03:17:51.481Z,10.60
2023-04-16T03:20:20.867Z,10.48
2023-04-16T03:22:48.380Z,13.38
2023-04-16T03:25:16.017Z,11.30
2023-04-16T03:27:43.309Z,13.98
2023-04-16T03:30:13.482Z,12.38
2023-04-16T03:32:42.402Z,12.15
2023-04-16T03:35:11.305Z,12.10
2023-04-16T03:37:38.747Z,11.20
2023-04-16T03:40:09.137Z,9.93
2023-04-16T03:42:36.817Z,9.18
2023-04-16T03:45:09.568Z,8.75
2023-04-16T03:47:38.181Z,13.77
2023-04-16T03:50:06.276Z,10.60
2023-04-16T03:52:34.925Z,9.15
2023-04-16T03:55:04.067Z,10.20
2023-04-16T03:57:32.208Z,9.85
2023-04-16T04:00:09.519Z,11.07
2023-04-16T04:02:55.437Z,14.73
2023-04-16T04:05:23.817Z,9.27
2023-04-16T04:07:52.552Z,8.90
2023-04-16T04:10:20.104Z,10.48
2023-04-16T04:12:47.447Z,9.52
2023-04-16T04:15:15.244Z,10.57
2023-04-16T04:17:43.207Z,9.93
2023-04-16T04:20:11.856Z,11.55
2023-04-16T04:22:39.400Z,12.00
2023-04-16T04:25:08.910Z,11.05
2023-04-16T04:27:36.396Z,12.25
2023-04-16T04:30:05.060Z,8.65
2023-04-16T04:32:33.755Z,7.55
2023-04-16T04:35:02.926Z,7.60
2023-04-16T04:37:30.189Z,8.85
2023-04-16T04:39:58.528Z,9.18
2023-04-16T04:42:25.940Z,9.68
2023-04-16T04:44:55.291Z,9.98
2023-04-16T04:47:23.824Z,10.02
2023-04-16T04:49:55.127Z,11.40
2023-04-16T04:52:22.517Z,11.60
2023-04-16T04:54:50.717Z,8.75
2023-04-16T04:57:18.002Z,8.45
2023-04-16T04:59:45.863Z,9.45
2023-04-16T05:02:14.720Z,10.57
2023-04-16T05:04:42.565Z,9.10
2023-04-16T05:07:09.929Z,8.15
2023-04-16T05:09:40.813Z,7.82
2023-04-16T05:12:09.409Z,7.72
2023-04-16T05:14:37.000Z,7.55
2023-04-16T05:17:04.663Z,10.23
2023-04-16T05:19:33.102Z,7.13
2023-04-16T05:22:00.435Z,6.38
2023-04-16T05:24:28.262Z,9.13
2023-04-16T05:26:56.860Z,9.43
2023-04-16T05:29:24.510Z,8.00
2023-04-16T05:31:54.043Z,9.98
2023-04-16T05:34:21.647Z,8.50
2023-04-16T05:36:49.160Z,10.32
2023-04-16T05:39:17.424Z,14.80
2023-04-16T05:41:45.707Z,11.50
2023-04-16T05:44:13.522Z,10.18
2023-04-16T05:46:41.273Z,8.13
2023-04-16T05:49:09.229Z,9.75
2023-04-16T05:51:36.788Z,7.75
2023-04-16T05:54:04.516Z,9.60
2023-04-16T05:56:31.821Z,9.32
2023-04-16T05:58:59.479Z,16.55
2023-04-16T06:01:26.882Z,17.95
2023-04-16T06:03:57.462Z,17.92
2023-04-16T06:06:24.931Z,21.35
2023-04-16T06:08:52.545Z,15.70
2023-04-16T06:11:19.980Z,16.02
2023-04-16T06:13:47.651Z,14.60
2023-04-16T06:16:15.082Z,12.45
2023-04-16T06:18:42.729Z,13.50
2023-04-16T06:21:10.479Z,13.48
2023-04-16T06:23:38.160Z,14.75
2023-04-16T06:26:05.836Z,18.27
2023-04-16T06:28:33.435Z,15.93
2023-04-16T06:31:01.293Z,16.67
2023-04-16T06:33:28.955Z,17.52
2023-04-16T06:35:56.733Z,23.00
2023-04-16T06:38:24.378Z,24.95
2023-04-16T06:40:52.048Z,26.63
2023-04-16T06:43:19.999Z,25.08
2023-04-16T06:45:47.305Z,31.13
2023-04-16T06:48:14.989Z,26.35
2023-04-16T06:50:42.423Z,20.45
2023-04-16T06:53:10.250Z,22.88
2023-04-16T06:55:40.118Z,16.13
2023-04-16T06:58:07.825Z,14.13
2023-04-16T07:00:35.305Z,14.23
2023-04-16T07:03:03.547Z,17.50
2023-04-16T07:05:31.837Z,16.00
2023-04-16T07:07:59.830Z,17.13
2023-04-16T07:10:27.157Z,16.25
2023-04-16T07:12:55.120Z,16.50
2023-04-16T07:15:22.461Z,15.35
2023-04-16T07:17:50.366Z,15.50
2023-04-16T07:20:18.048Z,12.35
2023-04-16T07:22:46.109Z,12.98
2023-04-16T07:25:13.507Z,9.90
2023-04-16T07:27:45.370Z,7.85
2023-04-16T07:30:12.870Z,6.20
2023-04-16T07:32:41.158Z,6.00
2023-04-16T07:35:33.927Z,5.07
2023-04-16T07:38:02.062Z,5.68
2023-04-16T07:40:31.434Z,5.80
2023-04-16T07:43:00.937Z,6.30
2023-04-16T07:45:29.799Z,6.07
2023-04-16T07:47:59.778Z,4.47
2023-04-16T07:50:28.632Z,5.82
2023-04-16T07:52:56.186Z,4.90
2023-04-16T07:55:23.753Z,4.93
2023-04-16T07:57:51.718Z,5.00
2023-04-16T08:00:19.566Z,6.13
2023-04-16T08:02:47.725Z,5.18
2023-04-16T08:05:15.658Z,6.07
2023-04-16T08:07:43.457Z,5.75
2023-04-16T08:10:11.329Z,5.65
2023-04-16T08:12:39.226Z,4.88
2023-04-16T08:15:07.525Z,4.50
2023-04-16T08:17:35.610Z,4.55
2023-04-16T08:20:06.999Z,6.13
2023-04-16T08:22:34.931Z,8.52
2023-04-16T08:25:03.034Z,4.57
2023-04-16T08:27:30.858Z,5.35
2023-04-16T08:29:58.313Z,6.30
2023-04-16T08:32:27.262Z,5.82
2023-04-16T08:34:55.436Z,3.95
2023-04-16T08:37:24.669Z,5.13
2023-04-16T08:39:52.165Z,4.35
2023-04-16T08:42:29.642Z,5.63
2023-04-16T08:45:10.025Z,5.38
2023-04-16T08:47:38.028Z,3.55
2023-04-16T08:50:06.471Z,3.38
2023-04-16T08:52:37.910Z,4.10
2023-04-16T08:55:12.231Z,3.92
2023-04-16T08:57:54.595Z,3.95
2023-04-16T09:00:22.448Z,4.63
2023-04-16T09:02:51.573Z,3.35
2023-04-16T09:05:25.596Z,4.40
2023-04-16T09:07:54.796Z,4.07
2023-04-16T09:10:23.850Z,7.88
2023-04-16T09:12:52.322Z,3.95
2023-04-16T09:15:21.543Z,5.18
2023-04-16T09:17:49.487Z,3.65
2023-04-16T09:20:17.756Z,3.00
2023-04-16T09:22:46.687Z,3.10
2023-04-16T09:25:16.395Z,6.80
2023-04-16T09:27:49.309Z,3.20
2023-04-16T09:30:24.854Z,3.17
2023-04-16T09:32:53.758Z,4.32
2023-04-16T09:35:21.655Z,5.22
2023-04-16T09:37:57.802Z,3.75
2023-04-16T09:40:27.524Z,2.67
2023-04-16T09:42:58.836Z,2.00
2023-04-16T09:45:26.664Z,16.98
2023-04-16T09:48:04.205Z,2.92
2023-04-16T09:50:31.722Z,4.15
2023-04-16T09:53:08.628Z,3.55
2023-04-16T09:55:36.224Z,1.90
2023-04-16T09:58:03.960Z,3.05
2023-04-16T10:00:31.818Z,4.30
2023-04-16T10:03:07.577Z,2.60
2023-04-16T10:05:35.645Z,3.78
2023-04-16T10:08:03.912Z,2.30
2023-04-16T10:10:32.535Z,3.63
2023-04-16T10:13:02.714Z,7.57
2023-04-16T10:15:30.713Z,2.50
2023-04-16T10:17:58.956Z,3.25
2023-04-16T10:20:26.973Z,2.67
2023-04-16T10:22:55.068Z,2.42
2023-04-16T10:25:24.268Z,2.88
2023-04-16T10:27:54.116Z,2.90
2023-04-16T10:30:22.422Z,4.88
2023-04-16T10:32:51.239Z,2.65
2023-04-16T10:35:21.815Z,3.70
2023-04-16T10:37:51.623Z,2.80
2023-04-16T10:40:27.953Z,3.58
2023-04-16T10:42:57.196Z,3.25
2023-04-16T10:45:32.823Z,2.35
2023-04-16T10:48:07.179Z,2.97
2023-04-16T10:50:36.190Z,2.72
2023-04-16T10:53:26.803Z,2.55
2023-04-16T10:56:15.684Z,3.00
2023-04-16T10:58:43.458Z,4.05
2023-04-16T11:01:17.083Z,2.38
2023-04-16T11:03:47.538Z,2.50
2023-04-16T11:06:25.179Z,11.65
2023-04-16T11:08:55.306Z,4.13
2023-04-16T11:11:23.486Z,2.80
2023-04-16T11:13:57.059Z,3.42
2023-04-16T11:16:26.199Z,2.67
2023-04-16T11:18:55.620Z,2.20
2023-04-16T11:21:24.731Z,2.58
2023-04-16T11:23:55.362Z,3.03
2023-04-16T11:26:28.040Z,3.63
2023-04-16T11:28:57.291Z,3.10
2023-04-16T11:31:28.446Z,3.13
2023-04-16T11:33:57.951Z,5.22
2023-04-16T11:36:27.456Z,3.90
2023-04-16T11:39:02.366Z,2.08
2023-04-16T11:43:57.629Z,2.40
2023-04-16T11:46:43.611Z,2.50
2023-04-16T11:49:12.140Z,1.73
2023-04-16T11:51:41.373Z,2.47
2023-04-16T11:54:11.997Z,2.20
2023-04-16T11:56:50.588Z,2.45
2023-04-16T11:59:24.302Z,1.90
2023-04-16T12:01:58.682Z,2.10
2023-04-16T12:04:27.669Z,2.35
2023-04-16T12:07:11.521Z,1.58
2023-04-16T12:09:41.738Z,2.05
2023-04-16T12:12:31.648Z,2.25
2023-04-16T12:15:00.340Z,2.42
2023-04-16T12:17:27.659Z,2.40
2023-04-16T12:20:00.755Z,2.60
2023-04-16T12:22:40.093Z,2.03
2023-04-16T12:25:12.677Z,1.90
2023-04-16T12:27:47.401Z,3.22
2023-04-16T12:30:21.197Z,2.13
2023-04-16T12:32:50.647Z,1.47
2023-04-16T12:35:32.582Z,2.90
2023-04-16T12:38:03.628Z,3.08
2023-04-16T12:40:31.584Z,2.40
2023-04-16T12:42:59.071Z,2.00
2023-04-16T12:45:26.998Z,4.35
2023-04-16T12:47:56.919Z,1.95
2023-04-16T12:50:24.951Z,2.05
2023-04-16T12:52:52.450Z,2.30
2023-04-16T12:55:20.802Z,1.98
2023-04-16T12:57:49.136Z,2.50
2023-04-16T13:00:17.273Z,3.10
2023-04-16T13:02:45.802Z,2.00
2023-04-16T13:05:16.764Z,2.30
2023-04-16T13:07:44.112Z,2.63
2023-04-16T13:10:12.849Z,2.03
2023-04-16T13:12:41.274Z,2.22
2023-04-16T13:15:12.456Z,1.88
2023-04-16T13:17:40.009Z,3.42
2023-04-16T13:20:10.038Z,2.10
2023-04-16T13:22:37.848Z,2.38
2023-04-16T13:25:06.273Z,4.72
2023-04-16T13:27:33.615Z,2.28
2023-04-16T13:30:01.917Z,2.03
2023-04-16T13:32:29.419Z,2.88
2023-04-16T13:34:57.184Z,3.47
2023-04-16T13:37:24.591Z,2.95
2023-04-16T13:39:52.189Z,2.72
2023-04-16T13:42:19.406Z,2.63
2023-04-16T13:44:49.442Z,2.45
2023-04-16T13:47:17.435Z,3.05
2023-04-16T13:49:45.038Z,2.20
2023-04-16T13:52:12.340Z,2.17
2023-04-16T13:54:41.633Z,2.72
2023-04-16T13:57:19.989Z,3.70
2023-04-16T13:59:47.722Z,2.50
2023-04-16T14:02:15.251Z,2.28
2023-04-16T14:04:42.941Z,2.25
2023-04-16T14:07:10.453Z,2.90
2023-04-16T14:09:37.996Z,2.50
2023-04-16T14:12:05.922Z,1.98
2023-04-16T14:14:36.097Z,3.30
2023-04-16T14:17:07.610Z,2.17
2023-04-16T14:19:35.255Z,2.22
2023-04-16T14:22:02.534Z,2.40
2023-04-16T14:24:30.531Z,2.80
2023-04-16T14:26:57.939Z,10.55
2023-04-16T14:29:25.946Z,1.67
2023-04-16T14:31:54.207Z,2.60
2023-04-16T14:34:22.919Z,2.15
2023-04-16T14:36:52.050Z,1.85
2023-04-16T14:39:19.753Z,1.83
2023-04-16T14:41:47.004Z,2.25
2023-04-16T14:44:16.614Z,2.40
2023-04-16T14:46:43.963Z,2.35
2023-04-16T14:49:12.558Z,2.55
2023-04-16T14:51:40.929Z,1.67
2023-04-16T14:54:09.738Z,4.18
2023-04-16T14:56:37.109Z,2.45
2023-04-16T14:59:04.706Z,2.55
2023-04-16T15:01:33.680Z,2.10
2023-04-16T15:04:02.980Z,2.33
2023-04-16T15:06:30.488Z,1.92
2023-04-16T15:08:59.879Z,1.60
2023-04-16T15:11:27.215Z,1.48
2023-04-16T15:13:54.801Z,2.00
2023-04-16T15:16:22.219Z,1.55
2023-04-16T15:18:50.902Z,2.25
2023-04-16T15:21:18.458Z,1.40
2023-04-16T15:23:46.326Z,2.28
2023-04-16T15:26:14.054Z,2.05
2023-04-16T15:28:43.410Z,2.38
2023-04-16T15:31:12.014Z,1.88
2023-04-16T15:33:39.756Z,1.90
2023-04-16T15:36:11.605Z,1.50
2023-04-16T15:38:40.943Z,2.17
2023-04-16T15:41:10.940Z,2.30
2023-04-16T15:43:40.689Z,2.88
2023-04-16T15:46:10.127Z,2.13
2023-04-16T15:48:38.005Z,2.72
2023-04-16T15:51:05.829Z,9.52
2023-04-16T15:53:34.799Z,2.65
2023-04-16T15:56:05.122Z,2.60
2023-04-16T15:58:32.724Z,5.00
2023-04-16T16:01:01.856Z,3.50
2023-04-16T16:03:30.063Z,4.68
2023-04-16T16:05:59.344Z,6.80
2023-04-16T16:08:27.534Z,4.70
2023-04-16T16:10:57.376Z,4.75
2023-04-16T16:13:27.030Z,5.80
2023-04-16T16:15:55.005Z,4.03
2023-04-16T16:18:23.658Z,3.25
2023-04-16T16:20:56.168Z,3.70
2023-04-16T16:23:25.485Z,3.08
2023-04-16T16:25:52.795Z,3.17
2023-04-16T16:28:21.438Z,2.58
2023-04-16T16:30:51.340Z,2.03
2023-04-16T16:33:19.226Z,2.75
2023-04-16T16:35:46.594Z,1.90
2023-04-16T16:38:14.217Z,2.55
2023-04-16T16:40:41.547Z,2.80
2023-04-16T16:43:09.531Z,2.28
2023-04-16T16:45:37.126Z,2.33
2023-04-16T16:48:05.123Z,3.28
2023-04-16T16:50:33.004Z,2.17
2023-04-16T16:53:00.807Z,3.15
2023-04-16T16:55:28.227Z,2.63
2023-04-16T16:57:56.201Z,2.83
2023-04-16T17:00:23.763Z,3.83
2023-04-16T17:02:52.222Z,4.07
2023-04-16T17:05:20.045Z,4.65
2023-04-16T17:07:47.708Z,4.25
2023-04-16T17:10:20.406Z,4.30
2023-04-16T17:12:49.081Z,4.30
2023-04-16T17:15:18.588Z,4.22
2023-04-16T17:17:48.397Z,3.58
2023-04-16T17:20:16.143Z,5.35
2023-04-16T17:22:44.262Z,4.43
2023-04-16T17:25:12.596Z,2.97
2023-04-16T17:27:40.699Z,5.00
2023-04-16T17:30:08.802Z,3.45
2023-04-16T17:32:37.550Z,4.25
2023-04-16T17:35:07.013Z,4.03
2023-04-16T17:37:35.353Z,3.42
2023-04-16T17:40:07.774Z,3.08
2023-04-16T17:42:37.956Z,4.28
2023-04-16T17:45:05.798Z,2.80
2023-04-16T17:47:36.763Z,4.55
2023-04-16T17:50:05.201Z,3.78
2023-04-16T17:52:32.970Z,3.13
2023-04-16T17:55:07.926Z,4.43
2023-04-16T17:57:37.785Z,5.72
2023-04-16T18:00:11.533Z,5.07
2023-04-16T18:02:41.169Z,4.35
2023-04-16T18:05:09.491Z,4.93
2023-04-16T18:07:40.009Z,5.35
2023-04-16T18:10:08.301Z,3.90
2023-04-16T18:12:39.026Z,5.75
2023-04-16T18:15:07.369Z,5.93
2023-04-16T18:17:35.438Z,4.00
2023-04-16T18:20:07.199Z,3.47
2023-04-16T18:22:35.055Z,3.75
2023-04-16T18:25:02.372Z,3.13
2023-04-16T18:27:31.085Z,3.20
2023-04-16T18:29:58.454Z,3.53
2023-04-16T18:32:30.868Z,3.83
2023-04-16T18:34:58.666Z,4.28
2023-04-16T18:37:31.945Z,3.90
2023-04-16T18:40:06.337Z,3.85
2023-04-16T18:42:37.965Z,3.25
2023-04-16T18:45:12.513Z,4.35
2023-04-16T18:47:42.469Z,4.95
2023-04-16T18:50:10.034Z,4.47
2023-04-16T18:52:38.928Z,4.13
2023-04-16T18:55:07.040Z,3.42
2023-04-16T18:57:36.091Z,4.15
2023-04-16T19:00:11.360Z,4.82
2023-04-16T19:02:40.722Z,4.32
2023-04-16T19:05:09.934Z,4.68
2023-04-16T19:07:38.828Z,5.63
2023-04-16T19:10:06.898Z,6.32
2023-04-16T19:12:34.545Z,4.13
2023-04-16T19:15:02.915Z,3.83
2023-04-16T19:17:32.059Z,5.30
2023-04-16T19:19:59.924Z,5.22
2023-04-16T19:22:33.398Z,4.82
2023-04-16T19:25:24.663Z,5.85
2023-04-16T19:27:56.168Z,8.50
2023-04-16T19:30:23.627Z,6.55
2023-04-16T19:32:52.653Z,6.50
2023-04-16T19:35:21.561Z,5.57
2023-04-16T19:37:49.669Z,6.43
2023-04-16T19:40:17.297Z,5.38
2023-04-16T19:42:49.654Z,4.85
2023-04-16T19:45:18.458Z,7.75
2023-04-16T19:47:48.866Z,6.75
2023-04-16T19:50:16.966Z,6.57
2023-04-16T19:52:45.318Z,8.00
2023-04-16T19:55:14.062Z,7.43
2023-04-16T19:57:41.772Z,8.05
2023-04-16T20:00:12.065Z,6.70
2023-04-16T20:02:41.302Z,5.55
2023-04-16T20:05:11.215Z,5.95
2023-04-16T20:07:38.809Z,5.18
2023-04-16T20:10:07.771Z,6.35
2023-04-16T20:12:36.236Z,6.97
2023-04-16T20:15:08.605Z,7.72
2023-04-16T20:17:37.393Z,6.68
2023-04-16T20:20:10.309Z,18.42
2023-04-16T20:22:39.052Z,7.45
2023-04-16T20:25:07.701Z,11.85
2023-04-16T20:27:35.923Z,7.80
2023-04-16T20:30:05.779Z,8.63
2023-04-16T20:32:33.665Z,8.43
2023-04-16T20:35:05.262Z,7.97
2023-04-16T20:37:38.206Z,8.50
2023-04-16T20:40:10.367Z,9.02
2023-04-16T20:42:38.171Z,10.68
2023-04-16T20:45:06.188Z,10.82
2023-04-16T20:47:35.080Z,9.48
2023-04-16T20:50:06.040Z,9.73
2023-04-16T20:52:34.356Z,9.35
2023-04-16T20:55:01.686Z,8.40
2023-04-16T20:57:29.882Z,10.27
2023-04-16T20:59:57.918Z,8.05
2023-04-16T21:02:28.371Z,8.68
2023-04-16T21:04:56.612Z,8.25
2023-04-16T21:07:25.606Z,7.10
2023-04-16T21:09:54.440Z,8.43
2023-04-16T21:12:22.047Z,6.13
2023-04-16T21:14:49.330Z,5.40
2023-04-16T21:17:16.898Z,5.82
2023-04-16T21:19:44.201Z,7.00
2023-04-16T21:22:12.778Z,8.07
2023-04-16T21:24:40.179Z,7.88
2023-04-16T21:27:09.833Z,14.95
2023-04-16T21:29:37.092Z,10.00
2023-04-16T21:32:05.003Z,10.05
2023-04-16T21:34:32.245Z,8.65
2023-04-16T21:36:59.882Z,10.02
2023-04-16T21:39:31.084Z,9.57
2023-04-16T21:41:58.743Z,9.10
2023-04-16T21:44:26.271Z,8.98
2023-04-16T21:46:53.923Z,9.15
2023-04-16T21:49:21.275Z,9.13
2023-04-16T21:51:50.352Z,9.60
2023-04-16T21:54:18.827Z,7.93
2023-04-16T21:56:47.567Z,8.75
2023-04-16T21:59:14.929Z,8.52
2023-04-16T22:01:42.883Z,8.63
2023-04-16T22:04:13.480Z,8.95
2023-04-16T22:06:46.355Z,8.50
2023-04-16T22:09:13.700Z,10.02
2023-04-16T22:11:49.859Z,21.42
2023-04-16T22:14:26.525Z,10.15
2023-04-16T22:16:56.625Z,11.75
2023-04-16T22:19:27.484Z,10.27
2023-04-16T22:21:57.095Z,10.20
2023-04-16T22:24:25.903Z,16.17
2023-04-16T22:26:56.141Z,11.65
2023-04-16T22:29:26.024Z,12.35
2023-04-16T22:31:55.555Z,10.43
2023-04-16T22:34:22.960Z,8.55
2023-04-16T22:36:56.479Z,7.63
2023-04-16T22:39:26.440Z,7.13
2023-04-16T22:41:56.563Z,6.35
2023-04-16T22:44:31.020Z,7.43
2023-04-16T22:47:01.952Z,7.40
2023-04-16T22:49:36.435Z,6.53
2023-04-16T22:52:07.539Z,7.05
2023-04-16T22:54:38.884Z,5.75
2023-04-16T22:57:23.306Z,6.18
2023-04-16T22:59:54.988Z,6.57
2023-04-16T23:02:24.891Z,5.85
2023-04-16T23:04:53.324Z,5.93
2023-04-16T23:07:23.721Z,6.57
2023-04-16T23:09:51.909Z,5.93
2023-04-16T23:12:23.721Z,6.30
2023-04-16T23:14:55.273Z,5.43
2023-04-16T23:17:30.858Z,5.57
2023-04-16T23:19:59.915Z,5.00
2023-04-16T23:22:28.537Z,5.70
2023-04-16T23:24:55.989Z,5.40
2023-04-16T23:27:26.593Z,5.13
2023-04-16T23:29:53.888Z,5.80
2023-04-16T23:32:22.391Z,5.72
2023-04-16T23:34:52.100Z,6.20
2023-04-16T23:37:26.030Z,7.38
2023-04-16T23:39:57.094Z,7.43
2023-04-16T23:42:27.316Z,7.70
2023-04-16T23:44:55.099Z,9.02
2023-04-16T23:47:26.957Z,16.83
2023-04-16T23:49:58.784Z,16.98
2023-04-16T23:52:28.456Z,10.82
2023-04-16T23:54:58.770Z,9.13
2023-04-16T23:57:27.011Z,8.52
2023-04-16T23:59:56.509Z,7.47
